^^
Datos históricos de la estación: Murcia-Puente Tocinos
Diario Informe para Diciembre 12, 2019 Unidades:  Ambas    Ingés   Métrico
Diario Semanal Mensual Anual
  Máxima: Mínima: Promedio:
Temperatura: 60.6 °F /  15.9 °C 50.4 °F /  10.2 °C 55.4 °F /  13 °C
Punto de rocio: 41.5 °F /  5.3 °C 35.2 °F /  1.8 °C 37.6 °F /  3.1 °C
Humedad: 63% 39% 52%
Velocidad viento: 13.5mph /  21.7km/h - 5.8mph /  9.3km/h
Racha viento: 25.3mph /  40.7km/h - -
Viento- - OSO
Presión: 30.2 in /  1023.0 hPa 29.9 in /  1012.4 hPa -
Precipitación: 0 in /  0.0 mm    
 
 
Tabla de datos para Diciembre 12, 2019
Hora Temperatura Punto de rocio Presión Viento Velocidad viento Racha viento Humedad Intensidad lluvia(por hora) Nubes
00:04 55.2 °F /  12.9 °C 37.9 °F /  3.3 °C 30.2in /  1022.9hPa ONO 12.2mph /  19.7km/h 22mph /  35.4km/h 52% 0in /  0.0mm
00:09 55.2 °F /  12.9 °C 37.9 °F /  3.3 °C 30.2in /  1023.0hPa ONO 11.2mph /  18km/h 21.9mph /  35.2km/h 52% 0in /  0.0mm
00:14 55.2 °F /  12.9 °C 38.1 °F /  3.4 °C 30.2in /  1023.0hPa ONO 11.3mph /  18.2km/h 22mph /  35.4km/h 52.3% 0in /  0.0mm
00:19 55 °F /  12.8 °C 38.3 °F /  3.5 °C 30.2in /  1023.0hPa ONO 11.4mph /  18.4km/h 17.3mph /  27.8km/h 53% 0in /  0.0mm
00:24 54.9 °F /  12.7 °C 38.1 °F /  3.4 °C 30.2in /  1023.0hPa ONO 10.7mph /  17.3km/h 19mph /  30.6km/h 53% 0in /  0.0mm
00:29 54.9 °F /  12.7 °C 37.9 °F /  3.3 °C 30.2in /  1022.8hPa ONO 10.2mph /  16.4km/h 19mph /  30.6km/h 53% 0in /  0.0mm
00:34 54.7 °F /  12.6 °C 37.9 °F /  3.3 °C 30.2in /  1022.8hPa ONO 10.2mph /  16.4km/h 17.3mph /  27.8km/h 53% 0in /  0.0mm
00:39 54.7 °F /  12.6 °C 37.8 °F /  3.2 °C 30.2in /  1022.9hPa ONO 10.2mph /  16.4km/h 17mph /  27.4km/h 53% 0in /  0.0mm
00:44 54.3 °F /  12.4 °C 37.8 °F /  3.2 °C 30.2in /  1022.9hPa Oeste 9.6mph /  15.5km/h 15mph /  24.1km/h 53.7% 0in /  0.0mm
00:49 54.1 °F /  12.3 °C 37.8 °F /  3.2 °C 30.2in /  1022.9hPa ONO 9.2mph /  14.8km/h 15.2mph /  24.5km/h 54% 0in /  0.0mm
00:54 54 °F /  12.2 °C 37.8 °F /  3.2 °C 30.2in /  1022.9hPa ONO 8.9mph /  14.3km/h 15mph /  24.1km/h 54% 0in /  0.0mm
00:59 54 °F /  12.2 °C 37.6 °F /  3.1 °C 30.2in /  1022.7hPa ONO 8.7mph /  14km/h 17.3mph /  27.8km/h 54% 0in /  0.0mm
01:04 53.8 °F /  12.1 °C 37.6 °F /  3.1 °C 30.2in /  1022.7hPa ONO 9.9mph /  16km/h 17.3mph /  27.8km/h 54% 0in /  0.0mm
01:09 53.8 °F /  12.1 °C 37.6 °F /  3.1 °C 30.2in /  1022.7hPa ONO 10.7mph /  17.2km/h 19mph /  30.6km/h 54% 0in /  0.0mm
01:14 54 °F /  12.2 °C 37.8 °F /  3.2 °C 30.2in /  1022.2hPa ONO 11.1mph /  17.9km/h 19mph /  30.6km/h 54% 0in /  0.0mm
01:19 54 °F /  12.2 °C 37.8 °F /  3.2 °C 30.2in /  1022.2hPa ONO 11.4mph /  18.4km/h 16mph /  25.7km/h 54% 0in /  0.0mm
01:24 54 °F /  12.2 °C 37.6 °F /  3.1 °C 30.2in /  1022.4hPa Oeste 10.4mph /  16.8km/h 15mph /  24.1km/h 54% 0in /  0.0mm
01:29 53.8 °F /  12.1 °C 37.4 °F /  3 °C 30.2in /  1022.4hPa ONO 9.7mph /  15.6km/h 14.5mph /  23.3km/h 54% 0in /  0.0mm
01:34 53.4 °F /  11.9 °C 37.2 °F /  2.9 °C 30.2in /  1022.4hPa Oeste 8.8mph /  14.1km/h 15mph /  24.1km/h 54% 0in /  0.0mm
01:39 53.4 °F /  11.9 °C 37.2 °F /  2.9 °C 30.2in /  1022.4hPa Oeste 8.1mph /  13km/h 12.7mph /  20.4km/h 54.2% 0in /  0.0mm
01:44 53.2 °F /  11.8 °C 37.4 °F /  3 °C 30.2in /  1022.3hPa OSO 7.4mph /  11.9km/h 13mph /  20.9km/h 55% 0in /  0.0mm
01:49 53.1 °F /  11.7 °C 37.2 °F /  2.9 °C 30.2in /  1022.3hPa OSO 6.9mph /  11.1km/h 9mph /  14.5km/h 55% 0in /  0.0mm
01:54 52.9 °F /  11.6 °C 37 °F /  2.8 °C 30.2in /  1022.3hPa Oeste 5.4mph /  8.7km/h 7mph /  11.3km/h 55% 0in /  0.0mm
01:59 52.9 °F /  11.6 °C 37.4 °F /  3 °C 30.2in /  1022.2hPa Oeste 4.3mph /  6.9km/h 6mph /  9.7km/h 55.6% 0in /  0.0mm
02:04 52.9 °F /  11.6 °C 37.2 °F /  2.9 °C 30.2in /  1022.2hPa NO 3.2mph /  5.1km/h 5mph /  8km/h 55.4% 0in /  0.0mm
02:09 52.7 °F /  11.5 °C 37.4 °F /  3 °C 30.2in /  1022.2hPa NO 2.4mph /  3.9km/h 5mph /  8km/h 55.9% 0in /  0.0mm
02:14 52.7 °F /  11.5 °C 37 °F /  2.8 °C 30.2in /  1022.1hPa NO 2.7mph /  4.3km/h 6.2mph /  10km/h 55.1% 0in /  0.0mm
02:19 52.7 °F /  11.5 °C 37 °F /  2.8 °C 30.2in /  1022.1hPa NNO 2.9mph /  4.7km/h 6.2mph /  10km/h 55.4% 0in /  0.0mm
02:24 52.7 °F /  11.5 °C 36.7 °F /  2.6 °C 30.2in /  1022.1hPa NO 3.5mph /  5.7km/h 13.5mph /  21.7km/h 54.4% 0in /  0.0mm
02:29 53.6 °F /  12 °C 36.3 °F /  2.4 °C 30.2in /  1021.9hPa Oeste 4mph /  6.5km/h 20.8mph /  33.5km/h 52% 0in /  0.0mm
02:34 54.7 °F /  12.6 °C 36.3 °F /  2.4 °C 30.2in /  1021.9hPa ONO 7.4mph /  11.9km/h 25.3mph /  40.7km/h 49.8% 0in /  0.0mm
02:39 54.9 °F /  12.7 °C 36 °F /  2.2 °C 30.2in /  1021.9hPa Oeste 9.7mph /  15.6km/h 25mph /  40.2km/h 49.2% 0in /  0.0mm
02:44 54.7 °F /  12.6 °C 36 °F /  2.2 °C 30.2in /  1021.8hPa Oeste 7.7mph /  12.4km/h 15.2mph /  24.5km/h 49% 0in /  0.0mm
02:49 54.7 °F /  12.6 °C 36 °F /  2.2 °C 30.2in /  1021.8hPa Oeste 6.2mph /  10km/h 15mph /  24.1km/h 49% 0in /  0.0mm
02:54 54.7 °F /  12.6 °C 35.6 °F /  2 °C 30.2in /  1022.0hPa OSO 6.2mph /  10km/h 15mph /  24.1km/h 48.5% 0in /  0.0mm
02:59 55 °F /  12.8 °C 35.4 °F /  1.9 °C 30.2in /  1022.0hPa OSO 6.2mph /  10km/h 15mph /  24.1km/h 47.3% 0in /  0.0mm
03:04 55 °F /  12.8 °C 35.6 °F /  2 °C 30.2in /  1022.0hPa SO 6.3mph /  10.2km/h 13mph /  20.9km/h 47.6% 0in /  0.0mm
03:09 54.9 °F /  12.7 °C 35.6 °F /  2 °C 30.2in /  1022.0hPa OSO 6.4mph /  10.3km/h 12mph /  19.3km/h 48.1% 0in /  0.0mm
03:14 54.7 °F /  12.6 °C 35.8 °F /  2.1 °C 30.2in /  1022.0hPa Oeste 5.5mph /  8.8km/h 15.9mph /  25.6km/h 48.8% 0in /  0.0mm
03:19 54.7 °F /  12.6 °C 35.4 °F /  1.9 °C 30.2in /  1022.0hPa OSO 4.7mph /  7.6km/h 18.5mph /  29.8km/h 48.1% 0in /  0.0mm
03:24 55 °F /  12.8 °C 35.6 °F /  2 °C 30.2in /  1022.0hPa Oeste 6mph /  9.6km/h 19mph /  30.6km/h 48% 0in /  0.0mm
03:29 54.9 °F /  12.7 °C 35.8 °F /  2.1 °C 30.2in /  1021.7hPa SSO 6.9mph /  11.1km/h 14mph /  22.5km/h 48.3% 0in /  0.0mm
03:34 54.1 °F /  12.3 °C 35.6 °F /  2 °C 30.2in /  1021.7hPa Sur 6mph /  9.7km/h 8.1mph /  13km/h 49.3% 0in /  0.0mm
03:39 54 °F /  12.2 °C 35.8 °F /  2.1 °C 30.2in /  1021.8hPa SSO 5.4mph /  8.7km/h 8mph /  12.9km/h 50.1% 0in /  0.0mm
03:44 53.4 °F /  11.9 °C 35.8 °F /  2.1 °C 30.2in /  1021.8hPa OSO 4.3mph /  7km/h 6mph /  9.7km/h 51.2% 0in /  0.0mm
03:49 53.1 °F /  11.7 °C 36 °F /  2.2 °C 30.2in /  1021.8hPa OSO 3.6mph /  5.8km/h 7.4mph /  11.9km/h 51.8% 0in /  0.0mm
03:54 53.1 °F /  11.7 °C 36 °F /  2.2 °C 30.2in /  1021.8hPa Oeste 3.2mph /  5.1km/h 7mph /  11.3km/h 52% 0in /  0.0mm
03:59 53.1 °F /  11.7 °C 36 °F /  2.2 °C 30.2in /  1021.8hPa Oeste 2.9mph /  4.7km/h 6mph /  9.7km/h 52% 0in /  0.0mm
04:04 53.1 °F /  11.7 °C 35.8 °F /  2.1 °C 30.2in /  1021.8hPa ONO 3mph /  4.8km/h 6mph /  9.7km/h 52% 0in /  0.0mm
04:09 52.9 °F /  11.6 °C 35.8 °F /  2.1 °C 30.2in /  1021.9hPa Oeste 3.1mph /  5km/h 16.1mph /  25.9km/h 52% 0in /  0.0mm
04:14 53.2 °F /  11.8 °C 36 °F /  2.2 °C 30.2in /  1021.9hPa Oeste 4.4mph /  7.1km/h 16mph /  25.7km/h 52% 0in /  0.0mm
04:19 53.2 °F /  11.8 °C 36.1 °F /  2.3 °C 30.2in /  1021.9hPa Oeste 5.4mph /  8.7km/h 21.5mph /  34.6km/h 51.9% 0in /  0.0mm
04:24 53.8 °F /  12.1 °C 35.8 °F /  2.1 °C 30.2in /  1021.9hPa Oeste 7.3mph /  11.8km/h 22mph /  35.4km/h 50.4% 0in /  0.0mm
04:29 54.1 °F /  12.3 °C 36 °F /  2.2 °C 30.2in /  1021.9hPa Oeste 8.7mph /  14km/h 22mph /  35.4km/h 50% 0in /  0.0mm
04:34 54 °F /  12.2 °C 36 °F /  2.2 °C 30.2in /  1021.9hPa Oeste 9.8mph /  15.8km/h 19mph /  30.6km/h 50.4% 0in /  0.0mm
04:39 53.8 °F /  12.1 °C 36.1 °F /  2.3 °C 30.2in /  1022.0hPa OSO 10.7mph /  17.2km/h 15mph /  24.1km/h 51% 0in /  0.0mm
04:44 53.6 °F /  12 °C 36 °F /  2.2 °C 30.2in /  1022.0hPa Oeste 7.1mph /  11.5km/h 8mph /  12.9km/h 51% 0in /  0.0mm
04:49 53.4 °F /  11.9 °C 35.8 °F /  2.1 °C 30.2in /  1022.0hPa SO 4.7mph /  7.6km/h 9.7mph /  15.6km/h 51% 0in /  0.0mm
04:54 53.6 °F /  12 °C 35.8 °F /  2.1 °C 30.2in /  1022.0hPa SSO 4.5mph /  7.2km/h 10mph /  16.1km/h 51% 0in /  0.0mm
04:59 53.6 °F /  12 °C 36 °F /  2.2 °C 30.2in /  1021.6hPa OSO 4.3mph /  6.9km/h 9mph /  14.5km/h 51% 0in /  0.0mm
05:04 53.6 °F /  12 °C 36 °F /  2.2 °C 30.2in /  1021.6hPa OSO 4.8mph /  7.8km/h 10.4mph /  16.7km/h 51% 0in /  0.0mm
05:09 53.8 °F /  12.1 °C 36.1 °F /  2.3 °C 30.2in /  1021.6hPa OSO 5.2mph /  8.4km/h 10mph /  16.1km/h 51% 0in /  0.0mm
05:14 53.6 °F /  12 °C 36 °F /  2.2 °C 30.2in /  1021.3hPa Oeste 4.9mph /  7.9km/h 7.4mph /  11.9km/h 51% 0in /  0.0mm
05:19 53.4 °F /  11.9 °C 35.8 °F /  2.1 °C 30.2in /  1021.3hPa OSO 4.7mph /  7.6km/h 7mph /  11.3km/h 51% 0in /  0.0mm
05:24 53.4 °F /  11.9 °C 35.8 °F /  2.1 °C 30.2in /  1021.3hPa SO 4.1mph /  6.6km/h 8.5mph /  13.7km/h 51% 0in /  0.0mm
05:29 53.4 °F /  11.9 °C 35.8 °F /  2.1 °C 30.2in /  1021.0hPa SO 3.6mph /  5.8km/h 9mph /  14.5km/h 51.1% 0in /  0.0mm
05:34 53.1 °F /  11.7 °C 36 °F /  2.2 °C 30.2in /  1021.0hPa Sur 4mph /  6.4km/h 7mph /  11.3km/h 52% 0in /  0.0mm
05:39 52.5 °F /  11.4 °C 36 °F /  2.2 °C 30.2in /  1021.2hPa Sur 4.3mph /  6.9km/h 6mph /  9.7km/h 53.1% 0in /  0.0mm
05:44 52.2 °F /  11.2 °C 36 °F /  2.2 °C 30.2in /  1021.2hPa SSO 3.6mph /  5.8km/h 5.8mph /  9.3km/h 54% 0in /  0.0mm
05:49 51.8 °F /  11 °C 36.1 °F /  2.3 °C 30.2in /  1021.2hPa SO 3.1mph /  5km/h 6mph /  9.7km/h 54.9% 0in /  0.0mm
05:54 51.8 °F /  11 °C 36.1 °F /  2.3 °C 30.2in /  1021.4hPa SO 3.1mph /  5km/h 6mph /  9.7km/h 55% 0in /  0.0mm
05:59 51.8 °F /  11 °C 36.1 °F /  2.3 °C 30.2in /  1021.4hPa SO 3.1mph /  5km/h 9.2mph /  14.8km/h 54.9% 0in /  0.0mm
06:04 52.2 °F /  11.2 °C 36 °F /  2.2 °C 30.2in /  1021.4hPa OSO 3.8mph /  6.1km/h 9mph /  14.5km/h 54% 0in /  0.0mm
06:09 52.3 °F /  11.3 °C 36.1 °F /  2.3 °C 30.2in /  1021.4hPa Oeste 4.3mph /  6.9km/h 8.1mph /  13km/h 54% 0in /  0.0mm
06:14 52.5 °F /  11.4 °C 36.3 °F /  2.4 °C 30.2in /  1021.2hPa Oeste 4.5mph /  7.3km/h 9.2mph /  14.8km/h 54% 0in /  0.0mm
06:19 52.7 °F /  11.5 °C 36.1 °F /  2.3 °C 30.2in /  1021.2hPa Oeste 4.7mph /  7.6km/h 14mph /  22.5km/h 53.3% 0in /  0.0mm
06:24 52.9 °F /  11.6 °C 36.1 °F /  2.3 °C 30.2in /  1021.2hPa Oeste 5.6mph /  9km/h 14mph /  22.5km/h 52.8% 0in /  0.0mm
06:29 53.1 °F /  11.7 °C 36 °F /  2.2 °C 30.2in /  1021.0hPa OSO 6.2mph /  10km/h 11.5mph /  18.5km/h 52.1% 0in /  0.0mm
06:34 53.1 °F /  11.7 °C 36.3 °F /  2.4 °C 30.2in /  1021.0hPa SSO 5.7mph /  9.1km/h 12mph /  19.3km/h 52.7% 0in /  0.0mm
06:39 52.9 °F /  11.6 °C 36.3 °F /  2.4 °C 30.2in /  1021.0hPa SSE 5.2mph /  8.4km/h 7.4mph /  11.9km/h 53.3% 0in /  0.0mm
06:44 51.8 °F /  11 °C 36.1 °F /  2.3 °C 30.1in /  1020.7hPa Sur 4.7mph /  7.5km/h 7.6mph /  12.2km/h 54.9% 0in /  0.0mm
06:49 50.9 °F /  10.5 °C 36.1 °F /  2.3 °C 30.1in /  1020.7hPa SSO 4.3mph /  6.9km/h 8.1mph /  13km/h 56.7% 0in /  0.0mm
06:54 50.5 °F /  10.3 °C 36.1 °F /  2.3 °C 30.2in /  1020.9hPa SSO 4.8mph /  7.8km/h 8mph /  12.9km/h 57.3% 0in /  0.0mm
06:59 50.5 °F /  10.3 °C 36.3 °F /  2.4 °C 30.2in /  1020.9hPa SSO 5.2mph /  8.4km/h 7mph /  11.3km/h 58% 0in /  0.0mm
07:04 50.5 °F /  10.3 °C 36.3 °F /  2.4 °C 30.2in /  1020.9hPa SSO 4.9mph /  7.9km/h 7mph /  11.3km/h 58% 0in /  0.0mm
07:09 50.5 °F /  10.3 °C 36.3 °F /  2.4 °C 30.2in /  1020.9hPa SSO 4.7mph /  7.6km/h 7mph /  11.3km/h 58% 0in /  0.0mm
07:14 50.5 °F /  10.3 °C 36.3 °F /  2.4 °C 30.1in /  1020.6hPa SO 4.3mph /  6.9km/h 6.9mph /  11.1km/h 58% 0in /  0.0mm
07:19 50.5 °F /  10.3 °C 36.3 °F /  2.4 °C 30.1in /  1020.6hPa SO 4mph /  6.5km/h 7mph /  11.3km/h 58% 0in /  0.0mm
07:24 50.5 °F /  10.3 °C 36.3 °F /  2.4 °C 30.1in /  1020.6hPa SO 4mph /  6.5km/h 6mph /  9.7km/h 58% 0in /  0.0mm
07:29 50.5 °F /  10.3 °C 36.3 °F /  2.4 °C 30.1in /  1020.5hPa SO 4mph /  6.5km/h 6.2mph /  10km/h 58% 0in /  0.0mm
07:34 50.5 °F /  10.3 °C 36.5 °F /  2.5 °C 30.1in /  1020.5hPa SO 3.8mph /  6.1km/h 6.9mph /  11.1km/h 58.5% 0in /  0.0mm
07:39 50.4 °F /  10.2 °C 36.7 °F /  2.6 °C 30.1in /  1020.6hPa SO 3.6mph /  5.8km/h 7mph /  11.3km/h 59% 0in /  0.0mm
07:44 50.4 °F /  10.2 °C 36.7 °F /  2.6 °C 30.1in /  1020.6hPa SO 4mph /  6.4km/h 7mph /  11.3km/h 59% 0in /  0.0mm
07:49 50.4 °F /  10.2 °C 36.7 °F /  2.6 °C 30.1in /  1020.6hPa SSO 4.3mph /  6.9km/h 7.4mph /  11.9km/h 59% 0in /  0.0mm
07:54 50.4 °F /  10.2 °C 36.7 °F /  2.6 °C 30.1in /  1020.6hPa SSO 4.3mph /  6.9km/h 8.1mph /  13km/h 59% 0in /  0.0mm
07:59 50.4 °F /  10.2 °C 36.7 °F /  2.6 °C 30.1in /  1020.5hPa SSO 4.3mph /  6.9km/h 8.5mph /  13.7km/h 59% 0in /  0.0mm
08:04 50.4 °F /  10.2 °C 36.7 °F /  2.6 °C 30.1in /  1020.5hPa OSO 5mph /  8km/h 9mph /  14.5km/h 59% 0in /  0.0mm
08:09 50.4 °F /  10.2 °C 36.3 °F /  2.4 °C 30.1in /  1020.7hPa SO 5.4mph /  8.7km/h 7mph /  11.3km/h 58.4% 0in /  0.0mm
08:14 50.4 °F /  10.2 °C 36.3 °F /  2.4 °C 30.1in /  1020.7hPa SSO 4mph /  6.5km/h 6.9mph /  11.1km/h 58.2% 0in /  0.0mm
08:19 50.5 °F /  10.3 °C 36.3 °F /  2.4 °C 30.1in /  1020.7hPa SSO 3.1mph /  5km/h 7mph /  11.3km/h 58% 0in /  0.0mm
08:24 50.5 °F /  10.3 °C 36.5 °F /  2.5 °C 30.1in /  1020.8hPa SSO 3.6mph /  5.8km/h 6.9mph /  11.1km/h 58% 0in /  0.0mm
08:29 50.7 °F /  10.4 °C 36.5 °F /  2.5 °C 30.1in /  1020.8hPa Sur 4mph /  6.5km/h 7mph /  11.3km/h 58% 0in /  0.0mm
08:34 50.7 °F /  10.4 °C 36.5 °F /  2.5 °C 30.1in /  1020.8hPa SO 4mph /  6.5km/h 6mph /  9.7km/h 58% 0in /  0.0mm
08:39 50.7 °F /  10.4 °C 36.5 °F /  2.5 °C 30.1in /  1020.8hPa SO 4mph /  6.5km/h 6.9mph /  11.1km/h 58% 0in /  0.0mm
08:44 50.7 °F /  10.4 °C 36.5 °F /  2.5 °C 30.1in /  1020.8hPa SO 4.2mph /  6.7km/h 7mph /  11.3km/h 58% 0in /  0.0mm
08:49 50.7 °F /  10.4 °C 36.5 °F /  2.5 °C 30.1in /  1020.8hPa OSO 4.3mph /  6.9km/h 7mph /  11.3km/h 58% 0in /  0.0mm
08:54 50.7 °F /  10.4 °C 36.7 °F /  2.6 °C 30.2in /  1021.0hPa SO 4.2mph /  6.7km/h 7mph /  11.3km/h 58.6% 0in /  0.0mm
08:59 50.7 °F /  10.4 °C 36.9 °F /  2.7 °C 30.2in /  1021.0hPa OSO 4mph /  6.5km/h 6.9mph /  11.1km/h 59% 0in /  0.0mm
09:04 50.5 °F /  10.3 °C 36.7 °F /  2.6 °C 30.2in /  1021.0hPa SO 4.2mph /  6.8km/h 8.1mph /  13km/h 59% 0in /  0.0mm
09:09 50.7 °F /  10.4 °C 36.9 °F /  2.7 °C 30.2in /  1021.1hPa SO 4.3mph /  6.9km/h 8.1mph /  13km/h 58.8% 0in /  0.0mm
09:14 51.1 °F /  10.6 °C 36.7 °F /  2.6 °C 30.2in /  1021.1hPa SO 4.8mph /  7.7km/h 8.7mph /  14km/h 57.7% 0in /  0.0mm
09:19 51.4 °F /  10.8 °C 36.7 °F /  2.6 °C 30.2in /  1021.1hPa SSO 5.2mph /  8.4km/h 9mph /  14.5km/h 57% 0in /  0.0mm
09:24 51.4 °F /  10.8 °C 36.9 °F /  2.7 °C 30.2in /  1021.1hPa SSO 5.2mph /  8.4km/h 9mph /  14.5km/h 57% 0in /  0.0mm
09:29 51.6 °F /  10.9 °C 36.9 °F /  2.7 °C 30.1in /  1020.8hPa SSO 5.2mph /  8.4km/h 8.5mph /  13.7km/h 57% 0in /  0.0mm
09:34 51.6 °F /  10.9 °C 36.7 °F /  2.6 °C 30.1in /  1020.8hPa SO 4.9mph /  7.9km/h 9.2mph /  14.8km/h 56.7% 0in /  0.0mm
09:39 51.6 °F /  10.9 °C 36.5 °F /  2.5 °C 30.1in /  1020.8hPa SO 4.7mph /  7.6km/h 9.2mph /  14.8km/h 56.1% 0in /  0.0mm
09:44 51.8 °F /  11 °C 36.5 °F /  2.5 °C 30.1in /  1020.7hPa SO 5.1mph /  8.2km/h 11.2mph /  18km/h 56% 0in /  0.0mm
09:49 51.8 °F /  11 °C 36.3 °F /  2.4 °C 30.1in /  1020.7hPa SO 5.4mph /  8.7km/h 12mph /  19.3km/h 55.4% 0in /  0.0mm
09:54 51.8 °F /  11 °C 36.3 °F /  2.4 °C 30.2in /  1020.9hPa SO 6mph /  9.6km/h 12mph /  19.3km/h 55.4% 0in /  0.0mm
09:59 52.2 °F /  11.2 °C 36.5 °F /  2.5 °C 30.2in /  1020.9hPa SO 6.4mph /  10.3km/h 11.5mph /  18.5km/h 55.1% 0in /  0.0mm
10:04 52.3 °F /  11.3 °C 36.1 °F /  2.3 °C 30.2in /  1020.9hPa SO 6.1mph /  9.8km/h 12mph /  19.3km/h 53.6% 0in /  0.0mm
10:09 52.9 °F /  11.6 °C 36 °F /  2.2 °C 30.2in /  1020.9hPa SSO 5.9mph /  9.5km/h 12mph /  19.3km/h 52.5% 0in /  0.0mm
10:14 53.2 °F /  11.8 °C 36.1 °F /  2.3 °C 30.1in /  1020.8hPa SSO 5.9mph /  9.5km/h 9mph /  14.5km/h 52% 0in /  0.0mm
10:19 53.6 °F /  12 °C 36.3 °F /  2.4 °C 30.1in /  1020.8hPa SSO 5.9mph /  9.5km/h 8.1mph /  13km/h 51.8% 0in /  0.0mm
10:24 53.8 °F /  12.1 °C 36.1 °F /  2.3 °C 30.2in /  1020.9hPa SSO 5mph /  8km/h 8.1mph /  13km/h 51.2% 0in /  0.0mm
10:29 53.8 °F /  12.1 °C 36.5 °F /  2.5 °C 30.2in /  1020.9hPa SSO 4.3mph /  6.9km/h 8.1mph /  13km/h 51.6% 0in /  0.0mm
10:34 54 °F /  12.2 °C 36.7 °F /  2.6 °C 30.2in /  1020.9hPa SSO 4.8mph /  7.8km/h 9.2mph /  14.8km/h 51.9% 0in /  0.0mm
10:39 54 °F /  12.2 °C 36.9 °F /  2.7 °C 30.2in /  1020.9hPa Sur 5.2mph /  8.4km/h 9mph /  14.5km/h 52.3% 0in /  0.0mm
10:44 54 °F /  12.2 °C 37 °F /  2.8 °C 30.2in /  1020.9hPa SSE 4.5mph /  7.2km/h 7mph /  11.3km/h 52.4% 0in /  0.0mm
10:49 54.1 °F /  12.3 °C 36.9 °F /  2.7 °C 30.2in /  1020.9hPa SSO 4mph /  6.5km/h 6mph /  9.7km/h 51.8% 0in /  0.0mm
10:54 54.3 °F /  12.4 °C 36.9 °F /  2.7 °C 30.2in /  1021.0hPa SO 3.4mph /  5.4km/h 5mph /  8km/h 51.5% 0in /  0.0mm
10:59 54.5 °F /  12.5 °C 36.9 °F /  2.7 °C 30.2in /  1021.0hPa SSO 2.9mph /  4.7km/h 5.2mph /  8.4km/h 51.2% 0in /  0.0mm
11:04 54.9 °F /  12.7 °C 37 °F /  2.8 °C 30.2in /  1021.0hPa SSO 3mph /  4.8km/h 6.9mph /  11.1km/h 51% 0in /  0.0mm
11:09 54.9 °F /  12.7 °C 37 °F /  2.8 °C 30.2in /  1021.0hPa SSO 3.1mph /  5km/h 7mph /  11.3km/h 51% 0in /  0.0mm
11:14 55 °F /  12.8 °C 37.2 °F /  2.9 °C 30.2in /  1021.0hPa SO 3.4mph /  5.5km/h 6mph /  9.7km/h 51.1% 0in /  0.0mm
11:19 55.2 °F /  12.9 °C 37 °F /  2.8 °C 30.2in /  1021.0hPa SO 3.6mph /  5.8km/h 6.2mph /  10km/h 50.3% 0in /  0.0mm
11:24 55.6 °F /  13.1 °C 36.9 °F /  2.7 °C 30.2in /  1021.0hPa SO 3.6mph /  5.8km/h 6mph /  9.7km/h 49.4% 0in /  0.0mm
11:29 55.8 °F /  13.2 °C 36.9 °F /  2.7 °C 30.1in /  1020.8hPa SO 3.6mph /  5.8km/h 6mph /  9.7km/h 48.8% 0in /  0.0mm
11:34 55.9 °F /  13.3 °C 37 °F /  2.8 °C 30.1in /  1020.8hPa SSO 3.6mph /  5.8km/h 6.9mph /  11.1km/h 49% 0in /  0.0mm
11:39 56.1 °F /  13.4 °C 37.2 °F /  2.9 °C 30.1in /  1020.8hPa SO 3.6mph /  5.8km/h 7mph /  11.3km/h 49% 0in /  0.0mm
11:44 56.1 °F /  13.4 °C 37.2 °F /  2.9 °C 30.1in /  1020.7hPa OSO 3.6mph /  5.8km/h 6.9mph /  11.1km/h 48.9% 0in /  0.0mm
11:49 56.3 °F /  13.5 °C 37.4 °F /  3 °C 30.1in /  1020.7hPa SO 3.6mph /  5.8km/h 7mph /  11.3km/h 49% 0in /  0.0mm
11:54 56.3 °F /  13.5 °C 37.4 °F /  3 °C 30.1in /  1020.7hPa SO 4mph /  6.4km/h 8.5mph /  13.7km/h 49% 0in /  0.0mm
11:59 56.3 °F /  13.5 °C 37.8 °F /  3.2 °C 30.1in /  1020.3hPa SO 4.3mph /  6.9km/h 9mph /  14.5km/h 49.5% 0in /  0.0mm
12:04 56.7 °F /  13.7 °C 37.6 °F /  3.1 °C 30.1in /  1020.3hPa SSO 4.1mph /  6.6km/h 8.1mph /  13km/h 48.9% 0in /  0.0mm
12:09 56.7 °F /  13.7 °C 37.6 °F /  3.1 °C 30.1in /  1020.3hPa SSO 4mph /  6.5km/h 8.7mph /  14km/h 48.6% 0in /  0.0mm
12:14 56.8 °F /  13.8 °C 37.4 °F /  3 °C 30.1in /  1020.2hPa SSO 4.8mph /  7.8km/h 9.2mph /  14.8km/h 48.2% 0in /  0.0mm
12:19 57 °F /  13.9 °C 37.4 °F /  3 °C 30.1in /  1020.2hPa SO 5.4mph /  8.7km/h 10.4mph /  16.7km/h 47.9% 0in /  0.0mm
12:24 57 °F /  13.9 °C 37.2 °F /  2.9 °C 30.1in /  1020.2hPa OSO 5.3mph /  8.5km/h 10mph /  16.1km/h 47.3% 0in /  0.0mm
12:29 57 °F /  13.9 °C 37.4 °F /  3 °C 30.1in /  1019.9hPa Sur 5.2mph /  8.4km/h 9.2mph /  14.8km/h 47.6% 0in /  0.0mm
12:34 57 °F /  13.9 °C 37.6 °F /  3.1 °C 30.1in /  1019.9hPa Sur 5.2mph /  8.4km/h 9mph /  14.5km/h 48% 0in /  0.0mm
12:39 57.2 °F /  14 °C 37.6 °F /  3.1 °C 30.1in /  1019.9hPa SSE 5.2mph /  8.4km/h 8.5mph /  13.7km/h 47.8% 0in /  0.0mm
12:44 57.6 °F /  14.2 °C 37.8 °F /  3.2 °C 30.1in /  1019.3hPa Sur 5.2mph /  8.4km/h 9mph /  14.5km/h 47.4% 0in /  0.0mm
12:49 57.7 °F /  14.3 °C 37.6 °F /  3.1 °C 30.1in /  1019.3hPa SSE 5.2mph /  8.4km/h 9.2mph /  14.8km/h 47% 0in /  0.0mm
12:54 58.1 °F /  14.5 °C 37.9 °F /  3.3 °C 30.1in /  1019.3hPa SSO 4.9mph /  7.9km/h 12.5mph /  20.1km/h 46.8% 0in /  0.0mm
12:59 58.6 °F /  14.8 °C 37 °F /  2.8 °C 30.1in /  1018.9hPa OSO 4.7mph /  7.6km/h 15.9mph /  25.6km/h 44.2% 0in /  0.0mm
13:04 59.4 °F /  15.2 °C 36.7 °F /  2.6 °C 30.1in /  1018.9hPa OSO 6.9mph /  11.1km/h 16.8mph /  27km/h 42.8% 0in /  0.0mm
13:09 59.5 °F /  15.3 °C 36.7 °F /  2.6 °C 30.1in /  1019.1hPa Oeste 8.5mph /  13.7km/h 17mph /  27.4km/h 42.4% 0in /  0.0mm
13:14 59.5 °F /  15.3 °C 36.3 °F /  2.4 °C 30.1in /  1019.1hPa ONO 8.3mph /  13.3km/h 13mph /  20.9km/h 42% 0in /  0.0mm
13:19 59.4 °F /  15.2 °C 36.1 °F /  2.3 °C 30.1in /  1019.1hPa Oeste 8.1mph /  13km/h 13.5mph /  21.7km/h 42% 0in /  0.0mm
13:24 59.5 °F /  15.3 °C 36.1 °F /  2.3 °C 30.1in /  1019.1hPa Oeste 7.4mph /  11.9km/h 14mph /  22.5km/h 41.6% 0in /  0.0mm
13:29 59.9 °F /  15.5 °C 35.8 °F /  2.1 °C 30.1in /  1018.5hPa ONO 6.9mph /  11.1km/h 15mph /  24.1km/h 40.5% 0in /  0.0mm
13:34 60.1 °F /  15.6 °C 35.6 °F /  2 °C 30.1in /  1018.5hPa Oeste 6.9mph /  11.1km/h 17.3mph /  27.8km/h 39.8% 0in /  0.0mm
13:39 60.1 °F /  15.6 °C 35.6 °F /  2 °C 30.1in /  1018.5hPa ONO 6.9mph /  11.1km/h 17.3mph /  27.8km/h 39.9% 0in /  0.0mm
13:44 60.3 °F /  15.7 °C 35.8 °F /  2.1 °C 30.1in /  1017.9hPa Oeste 8.3mph /  13.3km/h 17mph /  27.4km/h 40% 0in /  0.0mm
13:49 60.4 °F /  15.8 °C 35.4 °F /  1.9 °C 30.1in /  1017.9hPa Oeste 9.2mph /  14.8km/h 15mph /  24.1km/h 39.3% 0in /  0.0mm
13:54 60.4 °F /  15.8 °C 35.2 °F /  1.8 °C 30.1in /  1017.9hPa Oeste 8.6mph /  13.8km/h 15mph /  24.1km/h 39% 0in /  0.0mm
13:59 60.4 °F /  15.8 °C 36 °F /  2.2 °C 30.1in /  1017.5hPa Oeste 8.1mph /  13km/h 15mph /  24.1km/h 39.8% 0in /  0.0mm
14:04 60.6 °F /  15.9 °C 35.6 °F /  2 °C 30.1in /  1017.5hPa Oeste 8.1mph /  13km/h 18.4mph /  29.6km/h 39.3% 0in /  0.0mm
14:09 60.6 °F /  15.9 °C 35.8 °F /  2.1 °C 30.1in /  1017.5hPa Oeste 8.1mph /  13km/h 21.9mph /  35.2km/h 39.6% 0in /  0.0mm
14:14 60.4 °F /  15.8 °C 36 °F /  2.2 °C 30.1in /  1017.5hPa ONO 10.7mph /  17.2km/h 22mph /  35.4km/h 40% 0in /  0.0mm
14:19 60.3 °F /  15.7 °C 36.3 °F /  2.4 °C 30.1in /  1017.5hPa Oeste 12.5mph /  20.1km/h 21mph /  33.8km/h 40.8% 0in /  0.0mm
14:24 60.3 °F /  15.7 °C 36.3 °F /  2.4 °C 30.1in /  1017.5hPa Oeste 11.1mph /  17.8km/h 18mph /  29km/h 41.1% 0in /  0.0mm
14:29 60.3 °F /  15.7 °C 36.5 °F /  2.5 °C 30in /  1017.2hPa Oeste 10mph /  16.1km/h 16.1mph /  25.9km/h 41.1% 0in /  0.0mm
14:34 60.3 °F /  15.7 °C 37 °F /  2.8 °C 30in /  1017.2hPa Oeste 9.1mph /  14.7km/h 16.1mph /  25.9km/h 42% 0in /  0.0mm
14:39 60.3 °F /  15.7 °C 37 °F /  2.8 °C 30in /  1017.2hPa ONO 8.5mph /  13.7km/h 20.7mph /  33.3km/h 42% 0in /  0.0mm
14:44 60.3 °F /  15.7 °C 37.6 °F /  3.1 °C 30in /  1016.9hPa Oeste 9.2mph /  14.8km/h 21mph /  33.8km/h 42.8% 0in /  0.0mm
14:49 60.3 °F /  15.7 °C 37.8 °F /  3.2 °C 30in /  1016.9hPa Oeste 9.7mph /  15.6km/h 18.1mph /  29.1km/h 43% 0in /  0.0mm
14:54 60.3 °F /  15.7 °C 37.4 °F /  3 °C 30in /  1016.9hPa Oeste 8.8mph /  14.1km/h 18.4mph /  29.6km/h 42.5% 0in /  0.0mm
14:59 60.3 °F /  15.7 °C 37.6 °F /  3.1 °C 30in /  1016.6hPa Oeste 8.1mph /  13km/h 19mph /  30.6km/h 42.8% 0in /  0.0mm
15:04 60.3 °F /  15.7 °C 37.8 °F /  3.2 °C 30in /  1016.6hPa Oeste 9.4mph /  15.1km/h 21.5mph /  34.6km/h 43.1% 0in /  0.0mm
15:09 59.9 °F /  15.5 °C 37.8 °F /  3.2 °C 30in /  1016.6hPa Oeste 10.2mph /  16.4km/h 23.7mph /  38.1km/h 43.5% 0in /  0.0mm
15:14 59.9 °F /  15.5 °C 37.6 °F /  3.1 °C 30in /  1016.4hPa Oeste 11.8mph /  19km/h 24.2mph /  38.9km/h 43.6% 0in /  0.0mm
15:19 59.7 °F /  15.4 °C 37.6 °F /  3.1 °C 30in /  1016.4hPa Oeste 13mph /  20.9km/h 24mph /  38.6km/h 43.5% 0in /  0.0mm
15:24 59.7 °F /  15.4 °C 37.8 °F /  3.2 °C 30in /  1016.4hPa Oeste 13mph /  20.9km/h 23mph /  37km/h 44% 0in /  0.0mm
15:29 59.4 °F /  15.2 °C 37.4 °F /  3 °C 30in /  1016.2hPa ONO 13mph /  20.9km/h 24.6mph /  39.6km/h 44% 0in /  0.0mm
15:34 59.2 °F /  15.1 °C 37.8 °F /  3.2 °C 30in /  1016.2hPa ONO 13.3mph /  21.4km/h 25mph /  40.2km/h 45% 0in /  0.0mm
15:39 59.2 °F /  15.1 °C 37.8 °F /  3.2 °C 30in /  1016.2hPa ONO 13.5mph /  21.7km/h 22mph /  35.4km/h 45% 0in /  0.0mm
15:44 59 °F /  15 °C 37.8 °F /  3.2 °C 30in /  1016.2hPa ONO 12.8mph /  20.6km/h 22mph /  35.4km/h 45.2% 0in /  0.0mm
15:49 58.8 °F /  14.9 °C 38.1 °F /  3.4 °C 30in /  1016.2hPa ONO 12.3mph /  19.8km/h 23mph /  37km/h 46% 0in /  0.0mm
15:54 58.8 °F /  14.9 °C 38.1 °F /  3.4 °C 30in /  1016.2hPa ONO 13mph /  20.9km/h 23mph /  37km/h 46% 0in /  0.0mm
15:59 58.6 °F /  14.8 °C 37.9 °F /  3.3 °C 30in /  1016.0hPa ONO 13.5mph /  21.7km/h 23mph /  37km/h 46% 0in /  0.0mm
16:04 58.6 °F /  14.8 °C 38.3 °F /  3.5 °C 30in /  1016.0hPa ONO 12.3mph /  19.8km/h 25.3mph /  40.7km/h 46.7% 0in /  0.0mm
16:09 58.6 °F /  14.8 °C 38.5 °F /  3.6 °C 30in /  1016.3hPa ONO 11.4mph /  18.4km/h 25.3mph /  40.7km/h 47% 0in /  0.0mm
16:14 58.6 °F /  14.8 °C 38.5 °F /  3.6 °C 30in /  1016.3hPa ONO 11.3mph /  18.2km/h 25mph /  40.2km/h 47% 0in /  0.0mm
16:19 58.6 °F /  14.8 °C 38.5 °F /  3.6 °C 30in /  1016.3hPa ONO 11.2mph /  18km/h 18.5mph /  29.8km/h 47% 0in /  0.0mm
16:24 58.6 °F /  14.8 °C 38.5 °F /  3.6 °C 30in /  1016.3hPa ONO 11.2mph /  18km/h 19mph /  30.6km/h 47% 0in /  0.0mm
16:29 58.6 °F /  14.8 °C 38.5 °F /  3.6 °C 30in /  1016.3hPa ONO 11.2mph /  18km/h 19mph /  30.6km/h 47% 0in /  0.0mm
16:34 58.8 °F /  14.9 °C 38.7 °F /  3.7 °C 30in /  1016.3hPa ONO 10.9mph /  17.6km/h 19.6mph /  31.5km/h 47% 0in /  0.0mm
16:39 58.8 °F /  14.9 °C 38.7 °F /  3.7 °C 30in /  1016.3hPa ONO 10.7mph /  17.2km/h 20mph /  32.2km/h 47% 0in /  0.0mm
16:44 58.8 °F /  14.9 °C 38.7 °F /  3.7 °C 30in /  1016.1hPa ONO 10.3mph /  16.6km/h 16.1mph /  25.9km/h 47% 0in /  0.0mm
16:49 58.8 °F /  14.9 °C 38.7 °F /  3.7 °C 30in /  1016.1hPa ONO 10mph /  16.1km/h 16mph /  25.7km/h 47% 0in /  0.0mm
16:54 58.8 °F /  14.9 °C 38.7 °F /  3.7 °C 30in /  1016.1hPa ONO 9.5mph /  15.3km/h 15mph /  24.1km/h 47% 0in /  0.0mm
16:59 58.8 °F /  14.9 °C 38.7 °F /  3.7 °C 30in /  1016.1hPa ONO 9.2mph /  14.8km/h 14mph /  22.5km/h 47% 0in /  0.0mm
17:04 58.8 °F /  14.9 °C 38.7 °F /  3.7 °C 30in /  1016.1hPa ONO 8.3mph /  13.3km/h 13mph /  20.9km/h 47% 0in /  0.0mm
17:09 58.8 °F /  14.9 °C 38.7 °F /  3.7 °C 30in /  1016.1hPa ONO 7.6mph /  12.2km/h 11.8mph /  19km/h 47% 0in /  0.0mm
17:14 58.8 °F /  14.9 °C 38.7 °F /  3.7 °C 30in /  1016.0hPa ONO 7.5mph /  12km/h 12mph /  19.3km/h 47% 0in /  0.0mm
17:19 58.8 °F /  14.9 °C 38.7 °F /  3.7 °C 30in /  1016.0hPa ONO 7.4mph /  11.9km/h 11mph /  17.7km/h 47% 0in /  0.0mm
17:24 58.8 °F /  14.9 °C 38.7 °F /  3.7 °C 30in /  1016.0hPa ONO 6.8mph /  11km/h 10.4mph /  16.7km/h 47% 0in /  0.0mm
17:29 58.8 °F /  14.9 °C 38.7 °F /  3.7 °C 30in /  1015.8hPa ONO 6.4mph /  10.3km/h 10.7mph /  17.2km/h 47% 0in /  0.0mm
17:34 58.8 °F /  14.9 °C 38.3 °F /  3.5 °C 30in /  1015.8hPa ONO 6.4mph /  10.3km/h 11mph /  17.7km/h 46.6% 0in /  0.0mm
17:39 58.8 °F /  14.9 °C 38.1 °F /  3.4 °C 30in /  1015.9hPa Oeste 6.4mph /  10.3km/h 15mph /  24.1km/h 46% 0in /  0.0mm
17:44 59.2 °F /  15.1 °C 38.3 °F /  3.5 °C 30in /  1015.9hPa Oeste 6.7mph /  10.8km/h 15mph /  24.1km/h 46% 0in /  0.0mm
17:49 59 °F /  15 °C 38.3 °F /  3.5 °C 30in /  1015.9hPa OSO 6.9mph /  11.1km/h 10.7mph /  17.2km/h 46% 0in /  0.0mm
17:54 58.8 °F /  14.9 °C 38.3 °F /  3.5 °C 30in /  1016.0hPa SO 5.4mph /  8.7km/h 11mph /  17.7km/h 46.2% 0in /  0.0mm
17:59 58.6 °F /  14.8 °C 38.8 °F /  3.8 °C 30in /  1016.0hPa SO 4.3mph /  6.9km/h 7mph /  11.3km/h 47.7% 0in /  0.0mm
18:04 58.5 °F /  14.7 °C 38.8 °F /  3.8 °C 30in /  1016.0hPa Oeste 3.9mph /  6.2km/h 6mph /  9.7km/h 48% 0in /  0.0mm
18:09 58.3 °F /  14.6 °C 38.7 °F /  3.7 °C 30in /  1016.0hPa Oeste 3.6mph /  5.8km/h 6.9mph /  11.1km/h 48% 0in /  0.0mm
18:14 58.3 °F /  14.6 °C 38.7 °F /  3.7 °C 30in /  1015.9hPa ONO 3.6mph /  5.8km/h 7mph /  11.3km/h 48% 0in /  0.0mm
18:19 58.3 °F /  14.6 °C 38.7 °F /  3.7 °C 30in /  1015.9hPa Oeste 3.6mph /  5.8km/h 10.4mph /  16.7km/h 48% 0in /  0.0mm
18:24 58.3 °F /  14.6 °C 39 °F /  3.9 °C 30in /  1015.9hPa Oeste 4.2mph /  6.8km/h 10mph /  16.1km/h 48.6% 0in /  0.0mm
18:29 57.9 °F /  14.4 °C 38.8 °F /  3.8 °C 30in /  1015.5hPa OSO 4.7mph /  7.6km/h 6.2mph /  10km/h 49% 0in /  0.0mm
18:34 57.9 °F /  14.4 °C 38.8 °F /  3.8 °C 30in /  1015.5hPa OSO 4mph /  6.5km/h 6.9mph /  11.1km/h 49% 0in /  0.0mm
18:39 57.9 °F /  14.4 °C 38.8 °F /  3.8 °C 30in /  1015.5hPa SO 3.6mph /  5.8km/h 7mph /  11.3km/h 49% 0in /  0.0mm
18:44 57.9 °F /  14.4 °C 38.8 °F /  3.8 °C 30in /  1015.1hPa SSO 3.6mph /  5.8km/h 5.2mph /  8.4km/h 49% 0in /  0.0mm
18:49 57.7 °F /  14.3 °C 39.2 °F /  4 °C 30in /  1015.1hPa Sur 3.6mph /  5.8km/h 8.5mph /  13.7km/h 49.8% 0in /  0.0mm
18:54 57.6 °F /  14.2 °C 39.6 °F /  4.2 °C 30in /  1015.1hPa Sur 4.5mph /  7.3km/h 9mph /  14.5km/h 51% 0in /  0.0mm
18:59 57.4 °F /  14.1 °C 39.7 °F /  4.3 °C 30in /  1014.9hPa Sur 5.2mph /  8.4km/h 8mph /  12.9km/h 52% 0in /  0.0mm
19:04 57 °F /  13.9 °C 39.9 °F /  4.4 °C 30in /  1014.9hPa Sur 4.7mph /  7.5km/h 6.4mph /  10.3km/h 52.8% 0in /  0.0mm
19:09 56.8 °F /  13.8 °C 40.1 °F /  4.5 °C 30in /  1014.9hPa Sur 4.3mph /  6.9km/h 7mph /  11.3km/h 53.5% 0in /  0.0mm
19:14 56.5 °F /  13.6 °C 40.1 °F /  4.5 °C 30in /  1014.7hPa Sur 4.5mph /  7.3km/h 7mph /  11.3km/h 54% 0in /  0.0mm
19:19 56.5 °F /  13.6 °C 39.9 °F /  4.4 °C 30in /  1014.7hPa Sur 4.7mph /  7.6km/h 7mph /  11.3km/h 54% 0in /  0.0mm
19:24 56.5 °F /  13.6 °C 39.9 °F /  4.4 °C 30in /  1014.7hPa SSO 4.5mph /  7.2km/h 7mph /  11.3km/h 54% 0in /  0.0mm
19:29 56.5 °F /  13.6 °C 39.9 °F /  4.4 °C 30in /  1014.7hPa SSO 4.3mph /  6.9km/h 7mph /  11.3km/h 54% 0in /  0.0mm
19:34 56.7 °F /  13.7 °C 39.9 °F /  4.4 °C 30in /  1014.7hPa SO 4.2mph /  6.7km/h 6.2mph /  10km/h 53.4% 0in /  0.0mm
19:39 56.8 °F /  13.8 °C 39.7 °F /  4.3 °C 30in /  1014.7hPa SSO 4mph /  6.5km/h 6mph /  9.7km/h 53% 0in /  0.0mm
19:44 56.8 °F /  13.8 °C 39.7 °F /  4.3 °C 30in /  1014.5hPa SSO 3.8mph /  6.1km/h 7.4mph /  11.9km/h 52.8% 0in /  0.0mm
19:49 57 °F /  13.9 °C 39.6 °F /  4.2 °C 30in /  1014.5hPa SSO 3.6mph /  5.8km/h 7.6mph /  12.2km/h 52% 0in /  0.0mm
19:54 57 °F /  13.9 °C 39.6 °F /  4.2 °C 30in /  1014.5hPa SO 4.2mph /  6.8km/h 8.1mph /  13km/h 51.8% 0in /  0.0mm
19:59 57 °F /  13.9 °C 39 °F /  3.9 °C 29.9in /  1014.1hPa SSO 4.7mph /  7.6km/h 10.7mph /  17.2km/h 50.9% 0in /  0.0mm
20:04 57 °F /  13.9 °C 38.8 °F /  3.8 °C 29.9in /  1014.1hPa SSO 5.2mph /  8.3km/h 11.5mph /  18.5km/h 50.5% 0in /  0.0mm
20:09 57 °F /  13.9 °C 38.5 °F /  3.6 °C 29.9in /  1014.1hPa SO 5.4mph /  8.7km/h 12.3mph /  19.8km/h 50% 0in /  0.0mm
20:14 57 °F /  13.9 °C 38.7 °F /  3.7 °C 29.9in /  1014.0hPa SO 6mph /  9.6km/h 13.8mph /  22.2km/h 50% 0in /  0.0mm
20:19 57.2 °F /  14 °C 38.7 °F /  3.7 °C 29.9in /  1014.0hPa SSO 6.4mph /  10.3km/h 14mph /  22.5km/h 50% 0in /  0.0mm
20:24 57.2 °F /  14 °C 39 °F /  3.9 °C 29.9in /  1014.1hPa SO 6.7mph /  10.8km/h 13mph /  20.9km/h 50.6% 0in /  0.0mm
20:29 57 °F /  13.9 °C 39.2 °F /  4 °C 29.9in /  1014.1hPa SSO 6.9mph /  11.1km/h 12.7mph /  20.4km/h 51% 0in /  0.0mm
20:34 57 °F /  13.9 °C 39 °F /  3.9 °C 29.9in /  1014.1hPa SO 6.9mph /  11.1km/h 13mph /  20.9km/h 51% 0in /  0.0mm
20:39 57 °F /  13.9 °C 39 °F /  3.9 °C 29.9in /  1014.1hPa SO 6.9mph /  11.1km/h 13.7mph /  22km/h 51% 0in /  0.0mm
20:44 57 °F /  13.9 °C 39.6 °F /  4.2 °C 29.9in /  1014.1hPa SO 6.6mph /  10.6km/h 14mph /  22.5km/h 51.8% 0in /  0.0mm
20:49 56.8 °F /  13.8 °C 39.4 °F /  4.1 °C 29.9in /  1014.1hPa SO 6.4mph /  10.3km/h 10mph /  16.1km/h 52% 0in /  0.0mm
20:54 56.7 °F /  13.7 °C 39.6 °F /  4.2 °C 29.9in /  1014.1hPa SSO 5.8mph /  9.4km/h 10.7mph /  17.2km/h 52.5% 0in /  0.0mm
20:59 56.7 °F /  13.7 °C 39.7 °F /  4.3 °C 29.9in /  1013.8hPa Sur 5.4mph /  8.7km/h 11mph /  17.7km/h 53% 0in /  0.0mm
21:04 56.5 °F /  13.6 °C 39.6 °F /  4.2 °C 29.9in /  1013.8hPa SO 4.7mph /  7.6km/h 7mph /  11.3km/h 53.1% 0in /  0.0mm
21:09 56.5 °F /  13.6 °C 39.9 °F /  4.4 °C 29.9in /  1013.8hPa SO 4.3mph /  6.9km/h 6mph /  9.7km/h 54% 0in /  0.0mm
21:14 56.3 °F /  13.5 °C 39.9 °F /  4.4 °C 29.9in /  1013.8hPa OSO 3.2mph /  5.2km/h 5mph /  8km/h 54% 0in /  0.0mm
21:19 56.1 °F /  13.4 °C 39.7 °F /  4.3 °C 29.9in /  1013.8hPa Oeste 2.4mph /  3.9km/h 5.8mph /  9.3km/h 54% 0in /  0.0mm
21:24 56.1 °F /  13.4 °C 39.9 °F /  4.4 °C 29.9in /  1013.8hPa OSO 2.4mph /  3.9km/h 6mph /  9.7km/h 54.3% 0in /  0.0mm
21:29 55.9 °F /  13.3 °C 39.9 °F /  4.4 °C 29.9in /  1013.6hPa OSO 2.4mph /  3.9km/h 4mph /  6.4km/h 55% 0in /  0.0mm
21:34 55.9 °F /  13.3 °C 39.9 °F /  4.4 °C 29.9in /  1013.6hPa SO 1.8mph /  2.9km/h 4.6mph /  7.4km/h 55% 0in /  0.0mm
21:39 55.9 °F /  13.3 °C 39.7 °F /  4.3 °C 29.9in /  1013.6hPa SSO 1.4mph /  2.2km/h 5.2mph /  8.4km/h 54.6% 0in /  0.0mm
21:44 55.9 °F /  13.3 °C 39.9 °F /  4.4 °C 29.9in /  1013.5hPa SSO 1.7mph /  2.8km/h 5mph /  8km/h 55% 0in /  0.0mm
21:49 55.9 °F /  13.3 °C 40.3 °F /  4.6 °C 29.9in /  1013.5hPa SSO 2mph /  3.2km/h 2.9mph /  4.7km/h 55.6% 0in /  0.0mm
21:54 55.8 °F /  13.2 °C 40.3 °F /  4.6 °C 29.9in /  1013.7hPa SSO 1.7mph /  2.7km/h 3.5mph /  5.6km/h 56% 0in /  0.0mm
21:59 55.6 °F /  13.1 °C 40.1 °F /  4.5 °C 29.9in /  1013.7hPa SO 1.4mph /  2.2km/h 5.2mph /  8.4km/h 56% 0in /  0.0mm
22:04 55.6 °F /  13.1 °C 40.1 °F /  4.5 °C 29.9in /  1013.7hPa OSO 1.6mph /  2.6km/h 5mph /  8km/h 56% 0in /  0.0mm
22:09 55.6 °F /  13.1 °C 40.1 °F /  4.5 °C 29.9in /  1013.9hPa SO 1.8mph /  2.9km/h 5.8mph /  9.3km/h 56% 0in /  0.0mm
22:14 55.6 °F /  13.1 °C 40.1 °F /  4.5 °C 29.9in /  1013.9hPa OSO 1.9mph /  3.1km/h 6mph /  9.7km/h 56% 0in /  0.0mm
22:19 55.6 °F /  13.1 °C 40.5 °F /  4.7 °C 29.9in /  1013.9hPa ONO 2mph /  3.2km/h 5mph /  8km/h 56.6% 0in /  0.0mm
22:24 55.4 °F /  13 °C 40.6 °F /  4.8 °C 29.9in /  1013.9hPa North 1.9mph /  3km/h 4mph /  6.4km/h 57.7% 0in /  0.0mm
22:29 54.9 °F /  12.7 °C 40.5 °F /  4.7 °C 29.9in /  1013.8hPa NE 1.8mph /  2.9km/h 4mph /  6.4km/h 58.2% 0in /  0.0mm
22:34 54.7 °F /  12.6 °C 40.6 °F /  4.8 °C 29.9in /  1013.8hPa NE 1.8mph /  2.9km/h 3mph /  4.8km/h 59% 0in /  0.0mm
22:39 54.3 °F /  12.4 °C 40.8 °F /  4.9 °C 29.9in /  1013.8hPa NE 1.8mph /  2.9km/h 1mph /  1.6km/h 59.9% 0in /  0.0mm
22:44 54.3 °F /  12.4 °C 40.6 °F /  4.8 °C 29.9in /  1013.5hPa NE 0.7mph /  1.2km/h   59.9% 0in /  0.0mm
22:49 54.3 °F /  12.4 °C 40.3 °F /  4.6 °C 29.9in /  1013.5hPa Calm   2.3mph /  3.7km/h 59% 0in /  0.0mm
22:54 54.3 °F /  12.4 °C 40.3 °F /  4.6 °C 29.9in /  1013.5hPa Calm   3.1mph /  5km/h 59% 0in /  0.0mm
22:59 54.3 °F /  12.4 °C 40.5 °F /  4.7 °C 29.9in /  1013.4hPa Calm   3.5mph /  5.6km/h 59% 0in /  0.0mm
23:04 54.7 °F /  12.6 °C 40.6 °F /  4.8 °C 29.9in /  1013.4hPa Sur 1.2mph /  1.9km/h 3.6mph /  5.8km/h 59% 0in /  0.0mm
23:09 54.7 °F /  12.6 °C 41 °F /  5 °C 29.9in /  1013.4hPa SSE 2mph /  3.2km/h 4.7mph /  7.6km/h 59.8% 0in /  0.0mm
23:14 54.7 °F /  12.6 °C 41.2 °F /  5.1 °C 29.9in /  1012.8hPa SSE 2.5mph /  4.1km/h 5mph /  8km/h 60.1% 0in /  0.0mm
23:19 54.7 °F /  12.6 °C 41.4 °F /  5.2 °C 29.9in /  1012.8hPa SE 2.9mph /  4.7km/h 4.6mph /  7.4km/h 61% 0in /  0.0mm
23:24 54.3 °F /  12.4 °C 41.2 °F /  5.1 °C 29.9in /  1012.8hPa ESE 2.4mph /  3.8km/h 5mph /  8km/h 61% 0in /  0.0mm
23:29 54.1 °F /  12.3 °C 41.2 °F /  5.1 °C 29.9in /  1012.7hPa ESE 2mph /  3.2km/h 5mph /  8km/h 61.6% 0in /  0.0mm
23:34 54 °F /  12.2 °C 41.2 °F /  5.1 °C 29.9in /  1012.7hPa ESE 2mph /  3.2km/h 4mph /  6.4km/h 61.9% 0in /  0.0mm
23:39 53.8 °F /  12.1 °C 41 °F /  5 °C 29.9in /  1012.8hPa ESE 2mph /  3.2km/h 3mph /  4.8km/h 62% 0in /  0.0mm
23:44 53.6 °F /  12 °C 41 °F /  5 °C 29.9in /  1012.8hPa ESE 0.9mph /  1.4km/h 4.6mph /  7.4km/h 62% 0in /  0.0mm
23:49 53.6 °F /  12 °C 41.2 °F /  5.1 °C 29.9in /  1012.8hPa Calm   5mph /  8km/h 62.5% 0in /  0.0mm
23:54 53.8 °F /  12.1 °C 41.4 °F /  5.2 °C 29.9in /  1012.8hPa SO 1.8mph /  2.9km/h 5.9mph /  9.5km/h 63% 0in /  0.0mm
23:59 54 °F /  12.2 °C 41.5 °F /  5.3 °C 29.9in /  1012.4hPa SO 3.1mph /  5km/h 7.4mph /  11.9km/h 63% 0in /  0.0mm
Murcia-Puente Tocinos, España
Compliments of Weather Underground - 3 mb

La estación de MeteoMurcia.com, publica sus datos en los siguientes proyectos:

Weather Underground PWS IMURCIAP2 Meteoclimatic www.awekas.at

W3Counter
Web Analytics